createdAt,value
2017-09-03T00:00:03.701Z,13.20
2017-09-03T00:02:31.211Z,13.20
2017-09-03T00:04:58.703Z,13.20
2017-09-03T00:07:26.207Z,13.20
2017-09-03T00:09:54.851Z,13.20
2017-09-03T00:12:22.364Z,13.20
2017-09-03T00:14:49.877Z,13.20
2017-09-03T00:17:17.378Z,13.20
2017-09-03T00:19:44.894Z,13.20
2017-09-03T00:22:13.176Z,13.10
2017-09-03T00:24:42.213Z,13.10
2017-09-03T00:27:09.711Z,13.10
2017-09-03T00:29:37.217Z,13.10
2017-09-03T00:32:04.752Z,13.10
2017-09-03T00:34:32.271Z,13.10
2017-09-03T00:37:00.588Z,13.10
2017-09-03T00:39:28.492Z,13.10
2017-09-03T00:41:56.383Z,13.10
2017-09-03T00:44:23.889Z,13.10
2017-09-03T00:46:51.787Z,13.10
2017-09-03T00:49:19.299Z,13.10
2017-09-03T00:51:46.799Z,13.10
2017-09-03T00:54:15.075Z,13.00
2017-09-03T00:56:42.603Z,13.00
2017-09-03T00:59:10.495Z,13.00
2017-09-03T01:01:38.024Z,12.90
2017-09-03T01:04:05.923Z,12.90
2017-09-03T01:06:33.823Z,12.90
2017-09-03T01:09:01.332Z,12.80
2017-09-03T01:11:29.256Z,12.80
2017-09-03T01:13:57.556Z,12.90
2017-09-03T01:16:25.838Z,12.90
2017-09-03T01:18:53.771Z,12.90
2017-09-03T01:21:22.047Z,12.80
2017-09-03T01:23:49.947Z,12.80
2017-09-03T01:26:17.847Z,12.80
2017-09-03T01:28:46.123Z,12.90
2017-09-03T01:31:14.027Z,12.80
2017-09-03T01:33:41.532Z,12.80
2017-09-03T01:36:09.431Z,12.80
2017-09-03T01:38:36.943Z,12.80
2017-09-03T01:41:04.859Z,12.70
2017-09-03T01:43:32.378Z,12.70
2017-09-03T01:46:00.279Z,12.60
2017-09-03T01:48:27.779Z,12.60
2017-09-03T01:50:55.708Z,12.60
2017-09-03T01:53:23.231Z,12.60
2017-09-03T01:55:51.895Z,12.50
2017-09-03T01:58:19.404Z,12.60
2017-09-03T02:00:46.903Z,12.50
2017-09-03T02:03:15.170Z,12.50
2017-09-03T02:05:42.668Z,12.50
2017-09-03T02:08:10.160Z,12.50
2017-09-03T02:10:37.663Z,12.50
2017-09-03T02:13:05.919Z,12.50
2017-09-03T02:15:33.423Z,12.50
2017-09-03T02:18:00.935Z,12.60
2017-09-03T02:20:28.435Z,12.60
2017-09-03T02:22:55.953Z,12.60
2017-09-03T02:25:23.454Z,12.60
2017-09-03T02:27:50.956Z,12.60
2017-09-03T02:30:18.452Z,12.60
2017-09-03T02:32:45.973Z,12.60
2017-09-03T02:35:13.875Z,12.60
2017-09-03T02:37:41.768Z,12.50
2017-09-03T02:40:09.288Z,12.60
2017-09-03T02:42:36.788Z,12.60
2017-09-03T02:45:04.711Z,12.50
2017-09-03T02:47:32.979Z,12.50
2017-09-03T02:50:00.490Z,12.40
2017-09-03T02:52:28.003Z,12.40
2017-09-03T02:54:55.536Z,12.40
2017-09-03T02:57:23.432Z,12.40
2017-09-03T02:59:50.927Z,12.30
2017-09-03T03:02:18.451Z,12.30
2017-09-03T03:04:45.947Z,12.30
2017-09-03T03:07:13.442Z,12.30
2017-09-03T03:09:41.336Z,12.30
2017-09-03T03:12:08.837Z,12.30
2017-09-03T03:14:36.343Z,12.30
2017-09-03T03:17:03.847Z,12.30
2017-09-03T03:19:31.343Z,12.30
2017-09-03T03:21:58.868Z,12.30
2017-09-03T03:24:26.380Z,12.30
2017-09-03T03:26:53.911Z,12.30
2017-09-03T03:29:21.412Z,12.30
2017-09-03T03:31:49.693Z,12.30
2017-09-03T03:34:17.203Z,12.30
2017-09-03T03:36:44.707Z,12.30
2017-09-03T03:39:12.215Z,12.30
2017-09-03T03:41:40.114Z,12.30
2017-09-03T03:44:07.615Z,12.30
2017-09-03T03:46:35.133Z,12.30
2017-09-03T03:49:02.667Z,12.30
2017-09-03T03:51:30.161Z,12.30
2017-09-03T03:53:59.188Z,12.40
2017-09-03T03:56:28.199Z,12.50
2017-09-03T03:58:55.729Z,12.40
2017-09-03T04:01:23.231Z,12.30
2017-09-03T04:03:51.532Z,12.30
2017-09-03T04:06:19.042Z,12.30
2017-09-03T04:08:46.935Z,12.30
2017-09-03T04:11:14.435Z,12.30
2017-09-03T04:13:41.943Z,12.30
2017-09-03T04:16:09.441Z,12.40
2017-09-03T04:18:37.344Z,12.40
2017-09-03T04:21:04.880Z,12.40
2017-09-03T04:23:32.392Z,12.40
2017-09-03T04:25:59.911Z,12.40
2017-09-03T04:28:27.421Z,12.30
2017-09-03T04:30:54.940Z,12.30
2017-09-03T04:33:22.461Z,12.30
2017-09-03T04:35:49.986Z,12.30
2017-09-03T04:38:17.883Z,12.30
2017-09-03T04:40:46.175Z,12.30
2017-09-03T04:43:14.066Z,12.30
2017-09-03T04:45:41.605Z,12.40
2017-09-03T04:48:10.235Z,12.30
2017-09-03T04:50:37.731Z,12.30
2017-09-03T04:55:34.483Z,12.30
2017-09-03T04:58:02.767Z,12.30
2017-09-03T05:00:30.267Z,12.30
2017-09-03T05:02:57.792Z,12.20
2017-09-03T05:05:25.711Z,12.20
2017-09-03T05:07:53.665Z,12.30
2017-09-03T05:10:21.196Z,12.40
2017-09-03T05:12:49.127Z,12.30
2017-09-03T05:15:17.040Z,12.30
2017-09-03T05:17:44.571Z,12.30
2017-09-03T05:20:12.084Z,12.30
2017-09-03T05:22:39.636Z,12.30
2017-09-03T05:25:07.170Z,12.40
2017-09-03T05:27:34.676Z,12.40
2017-09-03T05:30:02.171Z,12.40
2017-09-03T05:32:30.079Z,12.40
2017-09-03T05:34:57.592Z,12.40
2017-09-03T05:37:25.109Z,12.50
2017-09-03T05:39:52.634Z,12.40
2017-09-03T05:42:20.176Z,12.50
2017-09-03T05:44:47.744Z,12.50
2017-09-03T05:47:15.284Z,12.60
2017-09-03T05:49:43.252Z,12.60
2017-09-03T05:52:10.763Z,12.60
2017-09-03T05:54:39.088Z,12.60
2017-09-03T05:59:35.516Z,12.70
2017-09-03T06:02:03.030Z,12.60
2017-09-03T06:04:30.990Z,12.70
2017-09-03T06:06:59.671Z,12.70
2017-09-03T06:09:27.199Z,12.70
2017-09-03T06:11:54.731Z,12.80
2017-09-03T06:16:51.570Z,12.80
2017-09-03T06:19:19.851Z,12.80
2017-09-03T06:21:48.510Z,12.80
2017-09-03T06:24:16.019Z,12.80
2017-09-03T06:26:44.707Z,12.90
2017-09-03T06:29:12.611Z,12.90
2017-09-03T06:31:40.135Z,12.90
2017-09-03T06:34:08.781Z,13.00
2017-09-03T06:36:36.319Z,13.10
2017-09-03T06:39:03.851Z,13.00
2017-09-03T06:41:31.819Z,13.20
2017-09-03T06:44:00.167Z,13.20
2017-09-03T06:46:28.091Z,13.20
2017-09-03T06:48:55.587Z,13.20
2017-09-03T06:51:23.107Z,13.10
2017-09-03T06:53:50.610Z,13.10
2017-09-03T06:56:19.078Z,13.30
2017-09-03T06:58:46.579Z,13.30
2017-09-03T07:01:14.098Z,13.30
2017-09-03T07:03:41.623Z,13.40
2017-09-03T07:06:09.123Z,13.40
2017-09-03T07:08:36.634Z,13.40
2017-09-03T07:11:05.643Z,13.40
2017-09-03T07:13:33.571Z,13.40
2017-09-03T07:16:01.104Z,13.40
2017-09-03T07:18:28.619Z,13.30
2017-09-03T07:20:56.116Z,13.40
2017-09-03T07:23:23.663Z,13.50
2017-09-03T07:25:51.167Z,13.50
2017-09-03T07:28:18.682Z,13.50
2017-09-03T07:30:46.184Z,13.60
2017-09-03T07:33:14.459Z,13.60
2017-09-03T07:35:41.962Z,13.70
2017-09-03T07:38:09.475Z,13.60
2017-09-03T07:40:37.009Z,13.60
2017-09-03T07:43:04.518Z,13.60
2017-09-03T07:45:32.795Z,13.70
2017-09-03T07:48:00.295Z,13.70
2017-09-03T07:50:27.814Z,13.60
2017-09-03T07:52:56.096Z,13.60
2017-09-03T07:57:53.288Z,13.60
2017-09-03T08:00:21.923Z,13.60
2017-09-03T08:02:49.431Z,13.60
2017-09-03T08:05:16.935Z,13.70
2017-09-03T08:07:44.450Z,13.70
2017-09-03T08:10:11.942Z,13.80
2017-09-03T08:12:39.438Z,13.90
2017-09-03T08:15:06.941Z,14.00
2017-09-03T08:17:34.875Z,14.10
2017-09-03T08:20:02.506Z,14.20
2017-09-03T08:27:27.906Z,14.50
2017-09-03T08:29:55.432Z,14.70
2017-09-03T08:32:23.846Z,14.70
2017-09-03T08:34:51.348Z,14.70
2017-09-03T08:37:18.887Z,14.60
2017-09-03T08:39:46.375Z,14.50
2017-09-03T08:42:13.890Z,14.50
2017-09-03T08:44:41.402Z,14.50
2017-09-03T08:47:08.904Z,14.50
2017-09-03T08:49:36.431Z,14.60
2017-09-03T08:52:03.947Z,14.70
2017-09-03T08:54:31.479Z,14.70
2017-09-03T08:56:58.992Z,14.70
2017-09-03T08:59:27.282Z,14.60
2017-09-03T09:01:54.802Z,14.70
2017-09-03T09:04:22.336Z,14.90
2017-09-03T09:06:49.847Z,15.10
2017-09-03T09:09:18.150Z,15.30
2017-09-03T09:11:46.428Z,15.50
2017-09-03T09:14:13.936Z,15.80
2017-09-03T09:16:42.583Z,15.70
2017-09-03T09:19:10.143Z,15.70
2017-09-03T09:21:37.665Z,15.60
2017-09-03T09:24:05.187Z,15.70
2017-09-03T09:26:32.709Z,15.70
2017-09-03T09:29:00.637Z,15.70
2017-09-03T09:31:28.189Z,15.60
2017-09-03T09:36:24.967Z,15.20
2017-09-03T09:38:52.467Z,15.10
2017-09-03T09:41:19.983Z,15.20
2017-09-03T09:43:48.631Z,15.50
2017-09-03T09:46:16.131Z,15.80
2017-09-03T09:48:43.627Z,16.20
2017-09-03T09:51:12.052Z,16.50
2017-09-03T09:53:39.592Z,16.60
2017-09-03T09:56:07.095Z,16.80
2017-09-03T09:58:34.615Z,17.10
2017-09-03T10:01:02.199Z,17.20
2017-09-03T10:03:31.544Z,17.00
2017-09-03T10:05:59.059Z,17.10
2017-09-03T10:08:26.583Z,17.50
2017-09-03T10:10:54.095Z,17.70
2017-09-03T10:13:21.631Z,17.90
2017-09-03T10:15:49.136Z,18.00
2017-09-03T10:18:16.650Z,18.20
2017-09-03T10:20:44.185Z,18.40
2017-09-03T10:23:11.702Z,18.10
2017-09-03T10:25:39.230Z,17.90
2017-09-03T10:28:06.733Z,17.70
2017-09-03T10:30:34.255Z,17.30
2017-09-03T10:33:01.779Z,17.00
2017-09-03T10:35:29.442Z,16.80
2017-09-03T10:37:57.183Z,16.50
2017-09-03T10:40:24.722Z,16.40
2017-09-03T10:42:52.247Z,16.20
2017-09-03T10:45:19.801Z,16.00
2017-09-03T10:47:47.348Z,15.90
2017-09-03T10:50:14.859Z,15.70
2017-09-03T10:52:42.388Z,15.70
2017-09-03T10:55:10.288Z,15.70
2017-09-03T11:00:06.668Z,15.80
2017-09-03T11:02:34.525Z,15.80
2017-09-03T11:05:02.068Z,15.90
2017-09-03T11:07:29.688Z,15.90
2017-09-03T11:09:57.975Z,15.90
2017-09-03T11:12:25.503Z,16.00
2017-09-03T11:14:54.142Z,16.00
2017-09-03T11:17:22.123Z,16.00
2017-09-03T11:19:49.650Z,16.00
2017-09-03T11:22:18.305Z,16.10
2017-09-03T11:24:46.580Z,16.00
2017-09-03T11:27:14.467Z,15.70
2017-09-03T11:29:41.991Z,15.60
2017-09-03T11:32:09.483Z,15.40
2017-09-03T11:34:37.048Z,15.00
2017-09-03T11:37:04.568Z,14.80
2017-09-03T11:39:32.097Z,14.70
2017-09-03T11:41:59.632Z,14.60
2017-09-03T11:44:27.630Z,14.50
2017-09-03T11:46:55.152Z,14.60
2017-09-03T11:49:22.655Z,14.70
2017-09-03T11:51:50.163Z,14.70
2017-09-03T11:54:17.666Z,14.90
2017-09-03T11:56:45.945Z,15.00
2017-09-03T11:59:13.453Z,15.10
2017-09-03T12:01:41.371Z,15.10
2017-09-03T12:04:08.868Z,15.10
2017-09-03T12:06:36.789Z,15.20
2017-09-03T12:09:04.295Z,15.30
2017-09-03T12:11:31.810Z,15.40
2017-09-03T12:13:59.307Z,15.60
2017-09-03T12:16:26.855Z,15.60
2017-09-03T12:18:54.360Z,15.50
2017-09-03T12:21:21.883Z,15.60
2017-09-03T12:23:49.781Z,15.70
2017-09-03T12:26:17.307Z,15.70
2017-09-03T12:28:44.811Z,15.70
2017-09-03T12:31:12.703Z,15.60
2017-09-03T12:33:40.967Z,15.40
2017-09-03T12:36:08.469Z,15.30
2017-09-03T12:38:35.999Z,15.20
2017-09-03T12:41:03.926Z,15.20
2017-09-03T12:43:31.461Z,15.20
2017-09-03T12:45:59.355Z,15.20
2017-09-03T12:48:26.871Z,15.30
2017-09-03T12:53:23.658Z,15.30
2017-09-03T12:55:51.922Z,15.40
2017-09-03T12:58:19.448Z,15.40
2017-09-03T13:00:47.708Z,15.40
2017-09-03T13:03:15.235Z,15.40
2017-09-03T13:05:44.272Z,15.40
2017-09-03T13:08:11.774Z,15.40
2017-09-03T13:10:40.417Z,15.40
2017-09-03T13:13:07.911Z,15.40
2017-09-03T13:18:04.279Z,15.40
2017-09-03T13:20:31.819Z,15.30
2017-09-03T13:22:59.333Z,15.30
2017-09-03T13:25:26.855Z,15.20
2017-09-03T13:27:54.355Z,15.20
2017-09-03T13:30:21.874Z,15.20
2017-09-03T13:32:49.370Z,15.10
2017-09-03T13:35:16.888Z,15.10
2017-09-03T13:37:44.391Z,15.20
2017-09-03T13:40:11.888Z,15.10
2017-09-03T13:42:39.393Z,15.00
2017-09-03T13:45:07.655Z,15.00
2017-09-03T13:47:35.174Z,15.00
2017-09-03T13:50:02.699Z,15.10
2017-09-03T13:52:30.219Z,15.10
2017-09-03T13:54:57.719Z,15.10
2017-09-03T13:57:25.235Z,15.00
2017-09-03T13:59:53.591Z,15.00
2017-09-03T14:02:21.139Z,15.10
2017-09-03T14:04:48.630Z,15.10
2017-09-03T14:07:16.971Z,15.10
2017-09-03T14:09:44.466Z,15.10
2017-09-03T14:12:12.102Z,15.00
2017-09-03T14:14:39.718Z,14.90
2017-09-03T14:17:07.394Z,14.90
2017-09-03T14:19:34.907Z,14.90
2017-09-03T14:22:02.421Z,14.90
2017-09-03T14:24:29.946Z,14.90
2017-09-03T14:26:58.964Z,15.00
2017-09-03T14:29:26.547Z,14.90
2017-09-03T14:31:54.047Z,14.90
2017-09-03T14:34:22.707Z,14.90
2017-09-03T14:39:19.643Z,14.90
2017-09-03T14:41:47.142Z,14.90
2017-09-03T14:44:14.647Z,14.90
2017-09-03T14:46:42.164Z,14.90
2017-09-03T14:49:10.432Z,14.90
2017-09-03T14:51:37.951Z,14.90
2017-09-03T14:54:05.465Z,14.90
2017-09-03T14:56:32.991Z,14.90
2017-09-03T14:59:00.885Z,14.90
2017-09-03T15:01:28.411Z,14.90
2017-09-03T15:03:55.907Z,14.90
2017-09-03T15:06:23.433Z,14.80
2017-09-03T15:08:50.962Z,14.90
2017-09-03T15:11:19.636Z,14.90
2017-09-03T15:13:47.135Z,14.80
2017-09-03T15:16:14.630Z,14.80
2017-09-03T15:18:42.153Z,14.70
2017-09-03T15:21:10.432Z,14.80
2017-09-03T15:23:38.356Z,14.90
2017-09-03T15:26:05.855Z,14.80
2017-09-03T15:28:33.374Z,14.70
2017-09-03T15:31:00.879Z,14.70
2017-09-03T15:33:28.786Z,14.70
2017-09-03T15:35:56.291Z,14.70
2017-09-03T15:38:23.814Z,14.70
2017-09-03T15:40:51.326Z,14.70
2017-09-03T15:43:18.868Z,14.70
2017-09-03T15:45:46.366Z,14.60
2017-09-03T15:48:13.862Z,14.60
2017-09-03T15:50:41.379Z,14.60
2017-09-03T15:53:08.880Z,14.60
2017-09-03T15:55:37.179Z,14.70
2017-09-03T15:58:04.705Z,14.70
2017-09-03T16:00:33.000Z,14.60
2017-09-03T16:03:02.009Z,14.60
2017-09-03T16:05:29.533Z,14.60
2017-09-03T16:07:57.036Z,14.60
2017-09-03T16:10:24.565Z,14.50
2017-09-03T16:12:52.077Z,14.60
2017-09-03T16:15:19.639Z,14.50
2017-09-03T16:17:47.537Z,14.50
2017-09-03T16:20:15.038Z,14.60
2017-09-03T16:22:43.685Z,14.50
2017-09-03T16:25:11.178Z,14.60
2017-09-03T16:27:38.696Z,14.50
2017-09-03T16:30:06.194Z,14.50
2017-09-03T16:32:33.722Z,14.50
2017-09-03T16:35:01.998Z,14.50
2017-09-03T16:37:29.495Z,14.50
2017-09-03T16:39:57.008Z,14.40
2017-09-03T16:42:24.507Z,14.40
2017-09-03T16:44:52.779Z,14.40
2017-09-03T16:47:20.271Z,14.30
2017-09-03T16:49:47.768Z,14.30
2017-09-03T16:52:30.539Z,14.20
2017-09-03T16:54:58.040Z,14.20
2017-09-03T16:57:25.979Z,14.20
2017-09-03T16:59:54.243Z,14.20
2017-09-03T17:02:21.750Z,14.20
2017-09-03T17:04:49.239Z,14.10
2017-09-03T17:07:16.754Z,14.10
2017-09-03T17:09:44.247Z,14.10
2017-09-03T17:12:12.519Z,14.10
2017-09-03T17:14:40.034Z,14.10
2017-09-03T17:17:08.675Z,14.10
2017-09-03T17:19:36.225Z,14.10
2017-09-03T17:22:03.726Z,14.00
2017-09-03T17:24:31.227Z,14.00
2017-09-03T17:26:58.743Z,14.00
2017-09-03T17:29:26.234Z,14.00
2017-09-03T17:31:56.567Z,13.90
2017-09-03T17:34:31.718Z,14.00
2017-09-03T17:37:04.788Z,14.00
2017-09-03T17:39:44.154Z,13.90
2017-09-03T17:44:40.503Z,13.90
2017-09-03T17:47:08.029Z,13.90
2017-09-03T17:49:37.051Z,13.90
2017-09-03T17:52:04.551Z,14.00
2017-09-03T17:54:32.050Z,13.90
2017-09-03T17:57:00.695Z,13.80
2017-09-03T17:59:28.211Z,13.80
2017-09-03T18:01:55.711Z,13.70
2017-09-03T18:04:23.971Z,13.70
2017-09-03T18:06:51.480Z,13.70
2017-09-03T18:09:18.991Z,13.70
2017-09-03T18:11:46.495Z,13.70
2017-09-03T18:14:14.764Z,13.70
2017-09-03T18:16:42.258Z,13.70
2017-09-03T18:19:09.752Z,13.70
2017-09-03T18:21:38.398Z,13.60
2017-09-03T18:24:05.892Z,13.70
2017-09-03T18:26:33.795Z,13.70
2017-09-03T18:29:02.168Z,13.70
2017-09-03T18:31:30.203Z,13.70
2017-09-03T18:33:57.695Z,13.60
2017-09-03T18:36:27.035Z,13.60
2017-09-03T18:38:56.010Z,13.60
2017-09-03T18:41:29.095Z,13.60
2017-09-03T18:44:13.474Z,13.60
2017-09-03T18:46:44.217Z,13.60
2017-09-03T18:49:11.726Z,13.70
2017-09-03T18:51:44.779Z,13.60
2017-09-03T18:54:12.682Z,13.60
2017-09-03T18:56:40.211Z,13.60
2017-09-03T18:59:11.331Z,13.60
2017-09-03T19:01:38.888Z,13.60
2017-09-03T19:04:07.903Z,13.70
2017-09-03T19:06:35.403Z,13.70
2017-09-03T19:09:02.915Z,13.60
2017-09-03T19:11:30.423Z,13.60
2017-09-03T19:13:57.938Z,13.50
2017-09-03T19:16:25.438Z,13.50
2017-09-03T19:18:53.723Z,13.40
2017-09-03T19:21:21.235Z,13.40
2017-09-03T19:26:17.615Z,13.40
2017-09-03T19:28:45.127Z,13.40
2017-09-03T19:31:12.632Z,13.40
2017-09-03T19:33:40.135Z,13.40
2017-09-03T19:36:07.650Z,13.40
2017-09-03T19:38:35.146Z,13.40
2017-09-03T19:41:03.813Z,13.50
2017-09-03T19:43:31.315Z,13.50
2017-09-03T19:45:59.235Z,13.50
2017-09-03T19:48:26.743Z,13.40
2017-09-03T19:50:54.303Z,13.40
2017-09-03T19:53:21.803Z,13.30
2017-09-03T19:55:49.343Z,13.20
2017-09-03T19:58:16.859Z,13.10
2017-09-03T20:00:44.371Z,13.10
2017-09-03T20:03:12.660Z,13.00
2017-09-03T20:05:40.152Z,13.10
2017-09-03T20:08:08.451Z,13.20
2017-09-03T20:10:35.951Z,13.20
2017-09-03T20:13:03.484Z,13.20
2017-09-03T20:15:31.747Z,13.20
2017-09-03T20:20:29.603Z,13.30
2017-09-03T20:22:57.503Z,13.30
2017-09-03T20:25:25.026Z,13.20
2017-09-03T20:27:52.523Z,13.20
2017-09-03T20:30:20.048Z,13.20
2017-09-03T20:32:47.550Z,13.20
2017-09-03T20:35:15.062Z,13.20
2017-09-03T20:37:42.955Z,13.20
2017-09-03T20:40:10.491Z,13.20
2017-09-03T20:42:37.991Z,13.20
2017-09-03T20:45:05.511Z,13.20
2017-09-03T20:50:01.851Z,13.20
2017-09-03T20:52:29.372Z,13.30
2017-09-03T20:54:57.627Z,13.30
2017-09-03T20:57:25.141Z,13.30
2017-09-03T20:59:52.636Z,13.20
2017-09-03T21:02:20.151Z,13.30
2017-09-03T21:04:47.646Z,13.20
2017-09-03T21:07:15.163Z,13.30
2017-09-03T21:09:42.659Z,13.30
2017-09-03T21:12:11.288Z,13.30
2017-09-03T21:14:38.819Z,13.30
2017-09-03T21:17:06.311Z,13.30
2017-09-03T21:19:33.827Z,13.20
2017-09-03T21:22:01.334Z,13.20
2017-09-03T21:24:29.250Z,13.30
2017-09-03T21:26:56.746Z,13.20
2017-09-03T21:29:24.270Z,13.20
2017-09-03T21:31:53.271Z,13.20
2017-09-03T21:34:20.767Z,13.20
2017-09-03T21:36:48.259Z,13.20
2017-09-03T21:39:15.769Z,13.20
2017-09-03T21:41:43.291Z,13.10
2017-09-03T21:44:10.794Z,13.10
2017-09-03T21:46:38.703Z,13.10
2017-09-03T21:49:06.971Z,13.10
2017-09-03T21:51:34.490Z,13.10
2017-09-03T21:54:02.018Z,13.10
2017-09-03T21:56:29.927Z,13.00
2017-09-03T21:58:57.428Z,13.00
2017-09-03T22:01:25.314Z,13.00
2017-09-03T22:03:53.938Z,13.00
2017-09-03T22:06:21.843Z,13.00
2017-09-03T22:08:49.761Z,13.00
2017-09-03T22:11:17.266Z,13.00
2017-09-03T22:13:44.781Z,13.00
2017-09-03T22:16:12.283Z,13.00
2017-09-03T22:18:41.416Z,13.10
2017-09-03T22:21:08.911Z,13.00
2017-09-03T22:23:37.187Z,13.00
2017-09-03T22:26:05.447Z,13.00
2017-09-03T22:28:33.359Z,13.00
2017-09-03T22:31:00.856Z,12.90
2017-09-03T22:33:28.379Z,12.80
2017-09-03T22:35:55.888Z,12.80
2017-09-03T22:38:23.391Z,12.80
2017-09-03T22:40:50.908Z,12.80
2017-09-03T22:43:18.409Z,12.80
2017-09-03T22:45:45.934Z,12.70
2017-09-03T22:48:13.834Z,12.80
2017-09-03T22:50:42.862Z,12.80
2017-09-03T22:53:10.378Z,12.80
2017-09-03T22:55:37.900Z,12.70
2017-09-03T22:58:06.167Z,12.60
2017-09-03T23:00:33.698Z,12.60
2017-09-03T23:03:01.220Z,12.60
2017-09-03T23:05:28.743Z,12.60
2017-09-03T23:07:56.247Z,12.50
2017-09-03T23:10:23.775Z,12.50
2017-09-03T23:15:20.127Z,12.50
2017-09-03T23:17:48.035Z,12.40
2017-09-03T23:20:15.927Z,12.40
2017-09-03T23:22:44.554Z,12.50
2017-09-03T23:25:12.055Z,12.40
2017-09-03T23:27:40.685Z,12.30
2017-09-03T23:30:09.318Z,12.20
2017-09-03T23:32:36.825Z,12.20
2017-09-03T23:35:04.331Z,12.20
2017-09-03T23:37:31.830Z,12.20
2017-09-03T23:39:59.319Z,12.10
2017-09-03T23:42:26.833Z,12.10
2017-09-03T23:44:54.331Z,12.00
2017-09-03T23:47:21.822Z,12.10
2017-09-03T23:49:49.711Z,12.00
2017-09-03T23:52:17.215Z,12.00
2017-09-03T23:54:44.709Z,11.90
2017-09-03T23:57:12.203Z,11.90
2017-09-03T23:59:39.694Z,11.90
